Time;durP1;ratioP1;P1;durP2;ratioP2;P2;SDS_P1;SDS_P2;PMS_P1;PMS_P2;Temp;Humidity;BMP_temperature;BMP_pressure;BME280_temperature;BME280_humidity;BME280_pressure;Samples;Min_cycle;Max_cycle;Signal;HPM_P1;HPM_P2
2024/01/01 00:02:51;;;;;;;21.23;15.03;;;7.40;98.80;;;;;;10483236;28;20205;-79
2024/01/01 00:07:53;;;;;;;23.23;16.30;;;7.30;98.70;;;;;;10499625;28;20747;-79
2024/01/01 00:12:57;;;;;;;23.23;16.70;;;7.40;98.70;;;;;;10498937;28;20200;-79
2024/01/01 00:17:59;;;;;;;19.43;14.83;;;7.40;98.60;;;;;;10499660;28;20720;-79
2024/01/01 00:23:02;;;;;;;18.20;14.13;;;7.50;98.60;;;;;;10498872;28;20200;-79
2024/01/01 00:28:07;;;;;;;18.20;14.07;;;7.60;98.50;;;;;;10488581;28;20201;-78
2024/01/01 00:33:09;;;;;;;15.03;11.43;;;7.60;98.10;;;;;;10458856;28;20796;-79
2024/01/01 00:38:11;;;;;;;15.80;11.80;;;7.60;98.10;;;;;;10500378;28;20220;-78
2024/01/01 00:43:15;;;;;;;19.53;12.27;;;7.60;98.20;;;;;;10498187;28;20710;-79
2024/01/01 00:48:17;;;;;;;14.70;11.67;;;7.60;98.20;;;;;;10481736;28;20185;-79
2024/01/01 00:53:20;;;;;;;13.37;11.03;;;7.60;98.10;;;;;;10500919;28;20705;-79
2024/01/01 00:58:23;;;;;;;20.30;15.37;;;7.60;98.00;;;;;;10468805;28;20296;-79
2024/01/01 01:03:26;;;;;;;15.73;13.20;;;7.60;98.20;;;;;;10455947;28;20289;-79
2024/01/01 01:08:28;;;;;;;13.03;10.47;;;7.70;98.10;;;;;;10479304;28;20204;-78
2024/01/01 01:13:32;;;;;;;13.53;11.60;;;7.70;98.20;;;;;;10478829;28;20220;-78
2024/01/01 01:18:34;;;;;;;12.03;10.13;;;7.70;98.70;;;;;;10479282;28;20217;-79
2024/01/01 01:23:37;;;;;;;13.80;10.60;;;7.70;98.30;;;;;;10438730;28;20667;-79
2024/01/01 01:28:40;;;;;;;14.50;11.03;;;7.70;98.60;;;;;;10426235;28;20193;-80
2024/01/01 01:33:43;;;;;;;16.70;12.33;;;7.80;98.30;;;;;;10497132;28;20208;-78
2024/01/01 01:38:45;;;;;;;13.70;9.50;;;7.80;98.40;;;;;;10467598;28;20274;-80
2024/01/01 01:43:50;;;;;;;18.00;13.50;;;7.90;98.70;;;;;;10458357;22;20247;-78
2024/01/01 01:48:52;;;;;;;39.23;25.60;;;7.90;98.90;;;;;;10494664;28;20188;-78
2024/01/01 01:53:55;;;;;;;149.73;90.40;;;7.70;98.90;;;;;;10495435;28;20694;-78
2024/01/01 01:59:03;;;;;;;15.50;12.43;;;7.70;99.10;;;;;;10484160;28;20307;-77
2024/01/01 02:04:05;;;;;;;12.50;10.13;;;7.70;99.40;;;;;;10467974;28;20217;-76
2024/01/01 02:09:07;;;;;;;8.27;7.20;;;7.70;99.30;;;;;;10479154;28;20193;-77
2024/01/01 02:14:12;;;;;;;8.00;6.67;;;7.70;99.30;;;;;;10483304;28;20243;-78
2024/01/01 02:19:20;;;;;;;9.27;7.17;;;7.80;99.40;;;;;;10471928;28;20221;-78
2024/01/01 02:24:24;;;;;;;7.67;6.47;;;7.80;99.50;;;;;;10450022;28;20286;-78
2024/01/01 02:29:26;;;;;;;8.47;6.47;;;7.80;99.30;;;;;;10469613;28;20693;-77
2024/01/01 02:34:29;;;;;;;8.63;6.00;;;7.80;99.40;;;;;;10464266;28;20213;-77
2024/01/01 02:39:32;;;;;;;7.13;6.47;;;7.80;99.40;;;;;;10466317;28;20224;-78
2024/01/01 02:44:35;;;;;;;9.73;6.20;;;7.80;99.50;;;;;;10473278;28;20275;-77
2024/01/01 02:49:37;;;;;;;9.63;7.00;;;7.80;99.60;;;;;;10473060;28;20185;-77
2024/01/01 02:54:41;;;;;;;7.93;6.50;;;7.80;99.70;;;;;;10474051;28;20263;-78
2024/01/01 02:59:43;;;;;;;8.20;6.47;;;7.80;99.90;;;;;;10474673;28;20231;-77
2024/01/01 03:04:45;;;;;;;12.40;6.37;;;7.80;99.70;;;;;;10475008;28;20589;-78
2024/01/01 03:09:50;;;;;;;9.60;7.30;;;7.70;99.70;;;;;;10471216;28;20201;-78
2024/01/01 03:14:52;;;;;;;7.60;6.57;;;7.70;99.80;;;;;;10492114;28;20225;-78
2024/01/01 03:19:55;;;;;;;11.20;7.00;;;7.60;99.90;;;;;;10472009;28;20526;-77
2024/01/01 03:24:58;;;;;;;12.43;7.80;;;7.60;99.90;;;;;;10475059;28;20225;-78
2024/01/01 03:30:01;;;;;;;12.43;7.70;;;7.60;99.90;;;;;;10469207;28;20219;-78
2024/01/01 03:35:04;;;;;;;9.57;8.30;;;7.60;99.90;;;;;;10475050;28;20221;-78
2024/01/01 03:40:09;;;;;;;8.63;6.90;;;7.60;99.90;;;;;;10469997;28;20254;-78
2024/01/01 03:45:12;;;;;;;8.60;7.23;;;7.70;99.90;;;;;;10475065;28;20229;-78
2024/01/01 03:50:16;;;;;;;7.47;6.47;;;7.60;99.90;;;;;;10469210;28;20672;-77
2024/01/01 03:55:20;;;;;;;9.33;6.27;;;7.70;99.90;;;;;;10497254;28;20220;-77
2024/01/01 04:00:23;;;;;;;7.97;5.67;;;7.70;99.90;;;;;;10479473;28;20197;-77
2024/01/01 04:05:26;;;;;;;11.40;6.37;;;7.80;99.90;;;;;;10472218;28;20270;-77
2024/01/01 04:10:30;;;;;;;6.50;4.90;;;7.80;99.90;;;;;;10465152;28;20205;-77
2024/01/01 04:15:32;;;;;;;6.83;5.07;;;7.80;99.90;;;;;;10483813;28;20223;-77
2024/01/01 04:20:34;;;;;;;4.33;3.93;;;7.70;99.90;;;;;;10465373;28;20196;-78
2024/01/01 04:25:38;;;;;;;5.27;4.37;;;7.70;99.90;;;;;;10465985;28;20208;-77
2024/01/01 04:30:40;;;;;;;7.70;4.77;;;7.70;99.90;;;;;;10469615;28;20277;-77
2024/01/01 04:35:43;;;;;;;3.37;2.93;;;7.70;99.90;;;;;;10472041;28;20220;-77
2024/01/01 04:40:47;;;;;;;3.23;2.70;;;7.60;99.90;;;;;;10497503;28;20200;-78
2024/01/01 04:45:50;;;;;;;3.80;2.63;;;7.60;99.90;;;;;;10470973;28;20721;-78
2024/01/01 04:50:52;;;;;;;4.13;2.73;;;7.60;99.90;;;;;;10491695;28;20209;-77
2024/01/01 04:55:56;;;;;;;2.90;2.60;;;7.60;99.90;;;;;;10460827;28;20212;-76
2024/01/01 05:00:58;;;;;;;3.73;3.40;;;7.60;99.90;;;;;;10467140;28;20204;-77
2024/01/01 05:06:00;;;;;;;6.00;2.80;;;7.60;99.90;;;;;;10491579;28;20644;-77
2024/01/01 05:11:05;;;;;;;2.97;2.10;;;7.50;99.90;;;;;;10459706;28;20233;-77
2024/01/01 05:16:09;;;;;;;2.07;1.97;;;7.50;99.90;;;;;;10473737;28;20209;-77
2024/01/01 05:21:12;;;;;;;3.37;3.03;;;7.50;99.90;;;;;;10459268;28;20208;-77
2024/01/01 05:26:15;;;;;;;1.93;1.80;;;7.40;99.90;;;;;;10472984;28;20224;-77
2024/01/01 05:31:20;;;;;;;3.10;2.20;;;7.40;99.90;;;;;;10462681;28;20253;-78
2024/01/01 05:36:23;;;;;;;3.70;2.03;;;7.40;99.90;;;;;;10456430;28;20224;-76
2024/01/01 05:41:26;;;;;;;4.20;2.30;;;7.30;99.90;;;;;;10492592;28;20263;-77
2024/01/01 05:46:31;;;;;;;3.03;2.20;;;7.40;99.90;;;;;;10479752;28;20261;-75
2024/01/01 05:51:33;;;;;;;4.33;2.67;;;7.40;99.90;;;;;;10470512;28;20254;-77
2024/01/01 05:56:37;;;;;;;2.63;2.43;;;7.30;99.90;;;;;;10456447;28;20213;-77
2024/01/01 06:01:39;;;;;;;3.30;3.10;;;7.30;99.90;;;;;;10491873;28;20274;-76
2024/01/01 06:06:42;;;;;;;3.33;3.07;;;7.20;99.90;;;;;;10455592;28;20702;-78
2024/01/01 06:11:46;;;;;;;3.97;2.50;;;7.30;99.90;;;;;;10481823;28;20275;-77
2024/01/01 06:16:48;;;;;;;5.50;3.10;;;7.30;99.90;;;;;;10485147;28;20604;-78
2024/01/01 06:21:50;;;;;;;3.23;2.27;;;7.30;99.90;;;;;;10453316;28;20205;-77
2024/01/01 06:26:54;;;;;;;9.30;3.63;;;7.20;99.90;;;;;;10487910;28;20695;-77
2024/01/01 06:31:57;;;;;;;3.77;2.43;;;7.20;99.90;;;;;;10461595;28;20736;-77
2024/01/01 06:36:59;;;;;;;3.57;2.87;;;7.10;99.90;;;;;;10452768;28;20228;-77
2024/01/01 06:42:03;;;;;;;6.40;2.87;;;6.90;99.90;;;;;;10494355;28;20200;-77
2024/01/01 06:47:06;;;;;;;3.07;2.77;;;6.90;99.90;;;;;;10451963;28;20225;-77
2024/01/01 06:52:08;;;;;;;2.53;2.20;;;6.80;99.90;;;;;;10452377;28;20201;-77
2024/01/01 06:57:12;;;;;;;8.13;2.80;;;6.80;99.90;;;;;;10473772;28;20228;-78
2024/01/01 07:02:14;;;;;;;3.30;2.60;;;6.80;99.90;;;;;;10494273;28;20205;-77
2024/01/01 07:07:17;;;;;;;3.60;3.13;;;6.70;99.90;;;;;;10452980;28;20263;-78
2024/01/01 07:12:23;;;;;;;4.00;2.40;;;6.50;99.90;;;;;;10493389;28;20731;-77
2024/01/01 07:17:25;;;;;;;5.03;2.30;;;6.40;99.90;;;;;;10453965;28;20219;-77
2024/01/01 07:22:28;;;;;;;4.20;2.30;;;6.50;99.90;;;;;;10493857;28;20728;-77
2024/01/01 07:27:32;;;;;;;4.80;2.60;;;6.50;99.90;;;;;;10455463;28;20225;-76
2024/01/01 07:32:35;;;;;;;2.60;2.10;;;6.60;99.90;;;;;;10499764;28;20200;-77
2024/01/01 07:37:37;;;;;;;6.07;2.40;;;6.60;99.90;;;;;;10441118;28;20229;-77
2024/01/01 07:42:41;;;;;;;6.73;2.60;;;6.70;99.90;;;;;;10497908;28;20273;-78
2024/01/01 07:47:43;;;;;;;3.07;2.57;;;6.70;99.90;;;;;;10474922;28;20259;-77
2024/01/01 07:52:46;;;;;;;6.00;2.37;;;6.70;99.90;;;;;;10493689;22;20229;-80
2024/01/01 07:57:50;;;;;;;3.30;2.23;;;6.80;99.90;;;;;;10465787;28;20225;-80
2024/01/01 08:02:52;;;;;;;5.20;2.50;;;6.80;99.90;;;;;;10468957;28;20778;-80
2024/01/01 08:07:57;;;;;;;3.97;2.57;;;6.80;99.90;;;;;;10467198;28;20197;-82
2024/01/01 08:13:01;;;;;;;6.87;2.40;;;6.90;99.90;;;;;;10472063;28;20315;-80
2024/01/01 08:18:04;;;;;;;5.47;2.50;;;7.00;99.90;;;;;;10448527;28;20702;-80
2024/01/01 08:23:06;;;;;;;2.97;2.20;;;7.00;99.90;;;;;;10469598;28;20213;-81
2024/01/01 08:28:10;;;;;;;3.10;1.83;;;7.10;99.90;;;;;;10452235;28;20197;-83
2024/01/01 08:33:13;;;;;;;3.90;2.27;;;7.20;99.90;;;;;;10476725;28;20224;-80
2024/01/01 08:38:16;;;;;;;5.93;2.40;;;7.20;99.90;;;;;;10467883;28;20217;-79
2024/01/01 08:43:19;;;;;;;4.93;2.00;;;7.40;99.90;;;;;;10451557;28;20780;-79
2024/01/01 08:48:22;;;;;;;1.97;1.60;;;7.50;99.90;;;;;;10442364;28;21417;-79
2024/01/01 08:53:24;;;;;;;3.10;1.90;;;7.50;99.90;;;;;;10454340;28;20236;-80
2024/01/01 08:58:28;;;;;;;2.13;1.93;;;7.60;99.90;;;;;;10456288;28;20217;-81
2024/01/01 09:03:30;;;;;;;2.20;2.00;;;7.60;99.90;;;;;;10458101;28;20238;-81
2024/01/01 09:08:33;;;;;;;3.73;2.37;;;7.70;99.90;;;;;;10443090;28;20193;-81
2024/01/01 09:13:36;;;;;;;5.37;2.30;;;7.80;99.90;;;;;;10455053;28;20284;-82
2024/01/01 09:18:39;;;;;;;4.90;2.00;;;8.00;99.90;;;;;;10442121;28;20679;-80
2024/01/01 09:23:41;;;;;;;6.17;2.30;;;8.10;99.90;;;;;;10439524;28;20220;-80
2024/01/01 09:28:45;;;;;;;5.67;1.53;;;8.20;99.90;;;;;;10458718;28;20189;-81
2024/01/01 09:33:47;;;;;;;4.03;1.50;;;8.20;99.80;;;;;;10442770;28;20225;-80
2024/01/01 09:38:49;;;;;;;4.83;2.00;;;8.30;99.90;;;;;;10464043;28;20310;-80
2024/01/01 09:43:54;;;;;;;3.13;1.50;;;8.40;99.60;;;;;;10463951;28;20232;-83
2024/01/01 09:48:56;;;;;;;3.47;2.27;;;8.50;99.70;;;;;;10461974;28;20196;-81
2024/01/01 09:54:02;;;;;;;2.77;1.77;;;8.60;99.40;;;;;;10460077;28;20236;-80
2024/01/01 09:59:05;;;;;;;3.63;1.83;;;8.80;99.00;;;;;;10470190;28;20229;-80
2024/01/01 10:04:09;;;;;;;1.77;1.67;;;9.00;98.60;;;;;;10467989;28;20585;-81
2024/01/01 10:09:12;;;;;;;2.60;2.07;;;9.00;98.00;;;;;;10437819;28;20189;-79
2024/01/01 10:14:16;;;;;;;3.13;1.87;;;9.00;98.20;;;;;;10468641;28;21434;-80
2024/01/01 10:19:18;;;;;;;3.80;1.70;;;9.00;98.10;;;;;;10452980;28;20227;-79
2024/01/01 10:24:21;;;;;;;1.80;1.70;;;8.90;97.70;;;;;;10444609;28;20671;-78
2024/01/01 10:29:27;;;;;;;2.00;1.90;;;8.90;97.60;;;;;;10462351;28;20612;-78
2024/01/01 10:34:32;;;;;;;5.00;1.70;;;8.90;97.60;;;;;;10460931;28;20185;-78
2024/01/01 10:39:36;;;;;;;2.00;1.70;;;8.90;97.20;;;;;;10439508;28;20225;-82
2024/01/01 10:44:39;;;;;;;4.07;1.90;;;8.90;97.30;;;;;;10457281;28;20201;-79
2024/01/01 10:49:51;;;;;;;2.53;2.07;;;8.90;97.00;;;;;;10459708;28;20647;-78
2024/01/01 10:55:16;;;;;;;3.63;2.00;;;9.00;97.20;;;;;;10434412;28;20224;-80
2024/01/01 11:00:30;;;;;;;4.43;1.70;;;9.20;97.20;;;;;;10466854;28;20221;-78
2024/01/01 11:05:34;;;;;;;3.17;1.80;;;9.30;96.90;;;;;;10444144;28;20197;-80
2024/01/01 11:10:40;;;;;;;6.87;2.50;;;9.40;96.80;;;;;;10448386;28;20217;-81
2024/01/01 11:15:45;;;;;;;2.67;2.40;;;9.60;96.80;;;;;;10453919;28;20578;-81
2024/01/01 11:20:52;;;;;;;5.37;1.97;;;9.60;96.60;;;;;;10469512;28;20225;-81
2024/01/01 11:25:55;;;;;;;3.80;2.30;;;9.70;96.30;;;;;;10451179;28;20205;-81
2024/01/01 11:30:58;;;;;;;2.67;2.03;;;9.90;96.20;;;;;;10469395;28;20217;-81
2024/01/01 11:36:06;;;;;;;3.80;1.70;;;9.90;96.20;;;;;;10472597;28;20247;-82
2024/01/01 11:41:08;;;;;;;5.00;1.80;;;10.10;94.70;;;;;;10469899;28;20213;-80
2024/01/01 11:46:23;;;;;;;5.40;2.90;;;10.10;94.40;;;;;;10471757;28;20204;-81
2024/01/01 11:51:25;;;;;;;6.77;2.43;;;10.10;94.50;;;;;;10471983;28;20225;-82
2024/01/01 11:56:27;;;;;;;8.00;2.17;;;10.10;94.70;;;;;;10467984;28;20559;-81
2024/01/01 12:01:32;;;;;;;7.23;2.80;;;10.10;93.80;;;;;;10468106;28;20217;-80
2024/01/01 12:06:34;;;;;;;6.60;2.47;;;10.10;94.50;;;;;;10462424;28;20193;-80
2024/01/01 12:11:38;;;;;;;5.00;2.90;;;10.20;94.10;;;;;;10464115;28;20213;-80
2024/01/01 12:16:43;;;;;;;4.93;1.97;;;10.20;93.80;;;;;;10468430;28;20251;-81
2024/01/01 12:21:46;;;;;;;3.30;2.17;;;10.30;93.00;;;;;;10452021;28;20221;-81
2024/01/01 12:26:50;;;;;;;5.77;2.07;;;10.30;93.10;;;;;;10474778;28;20193;-82
2024/01/01 12:31:54;;;;;;;7.20;2.20;;;10.30;93.60;;;;;;10460799;28;20221;-80
2024/01/01 12:36:58;;;;;;;5.17;2.10;;;10.30;95.00;;;;;;10462353;28;20267;-81
2024/01/01 12:42:00;;;;;;;6.50;1.80;;;10.10;94.50;;;;;;10441276;28;20225;-79
2024/01/01 12:47:05;;;;;;;4.87;2.00;;;10.10;94.50;;;;;;10463013;28;20208;-82
2024/01/01 12:52:08;;;;;;;2.83;1.80;;;10.20;93.70;;;;;;10444046;28;20241;-81
2024/01/01 12:57:10;;;;;;;2.37;2.07;;;10.20;94.30;;;;;;10444920;28;20425;-81
2024/01/01 13:02:14;;;;;;;3.67;1.87;;;10.20;94.10;;;;;;10464913;28;20247;-81
2024/01/01 13:07:16;;;;;;;3.20;1.90;;;10.20;94.20;;;;;;10443160;28;20220;-82
2024/01/01 13:12:19;;;;;;;5.00;2.47;;;10.20;93.90;;;;;;10464045;28;20722;-83
2024/01/01 13:17:22;;;;;;;2.57;2.23;;;10.20;94.10;;;;;;10475662;28;20205;-83
2024/01/01 13:22:25;;;;;;;6.87;2.30;;;10.20;93.80;;;;;;10453484;28;20746;-80
2024/01/01 13:27:28;;;;;;;2.90;1.97;;;10.20;94.00;;;;;;10449530;28;20204;-83
2024/01/01 13:32:31;;;;;;;5.87;2.77;;;10.20;93.90;;;;;;10460274;28;20209;-83
2024/01/01 13:37:34;;;;;;;6.50;2.07;;;10.10;93.80;;;;;;10457945;28;20208;-83
2024/01/01 13:42:36;;;;;;;8.10;2.93;;;10.10;94.00;;;;;;10465511;28;20757;-83
2024/01/01 13:47:39;;;;;;;7.00;2.50;;;10.10;93.60;;;;;;10465668;28;20205;-83
2024/01/01 13:52:43;;;;;;;9.13;2.57;;;10.10;93.40;;;;;;10449502;28;20264;-80
2024/01/01 13:57:45;;;;;;;2.93;2.10;;;10.10;93.00;;;;;;10459278;28;20208;-81
2024/01/01 14:02:49;;;;;;;7.53;2.23;;;10.10;93.30;;;;;;10441215;28;20220;-80
2024/01/01 14:07:51;;;;;;;4.97;2.50;;;10.20;92.50;;;;;;10457670;28;20202;-80
2024/01/01 14:12:54;;;;;;;5.87;2.30;;;10.20;92.10;;;;;;10464958;28;20243;-80
2024/01/01 14:17:58;;;;;;;4.40;2.80;;;10.20;92.50;;;;;;10455731;28;20670;-80
2024/01/01 14:23:00;;;;;;;5.20;2.43;;;10.20;92.70;;;;;;10442284;28;20232;-82
2024/01/01 14:28:02;;;;;;;6.37;2.37;;;10.10;92.40;;;;;;10438579;28;20466;-82
2024/01/01 14:33:06;;;;;;;13.20;2.60;;;10.10;92.10;;;;;;10460734;28;20247;-81
2024/01/01 14:38:09;;;;;;;3.87;2.13;;;10.00;91.60;;;;;;10466919;28;20219;-82
2024/01/01 14:43:13;;;;;;;6.10;3.07;;;10.00;92.20;;;;;;10437066;28;20228;-82
2024/01/01 14:48:20;;;;;;;6.10;2.63;;;10.00;92.20;;;;;;10457553;28;20647;-83
2024/01/01 14:53:22;;;;;;;5.70;2.50;;;10.00;92.40;;;;;;10462323;28;20228;-82
2024/01/01 14:58:24;;;;;;;3.13;2.13;;;9.90;92.50;;;;;;10431246;28;20201;-83
2024/01/01 15:03:28;;;;;;;5.13;2.30;;;9.90;92.60;;;;;;10439699;28;20217;-82
2024/01/01 15:08:30;;;;;;;5.67;2.97;;;9.90;92.10;;;;;;10455791;28;20247;-81
2024/01/01 15:13:33;;;;;;;3.20;2.37;;;9.80;92.60;;;;;;10452092;28;20589;-83
2024/01/01 15:18:36;;;;;;;5.17;2.33;;;9.80;92.90;;;;;;10449376;28;20190;-83
2024/01/01 15:23:40;;;;;;;6.20;2.70;;;9.70;92.90;;;;;;10459806;28;20283;-83
2024/01/01 15:28:42;;;;;;;5.43;2.50;;;9.70;92.70;;;;;;10463537;28;20200;-83
2024/01/01 15:33:46;;;;;;;6.90;2.50;;;9.70;93.10;;;;;;10466960;28;20218;-82
2024/01/01 15:38:48;;;;;;;11.10;3.20;;;9.60;93.20;;;;;;10465820;28;20690;-82
2024/01/01 15:43:51;;;;;;;4.50;2.00;;;9.60;93.60;;;;;;10462746;28;20228;-84
2024/01/01 15:48:56;;;;;;;3.97;2.40;;;9.50;93.70;;;;;;10451516;28;20623;-82
2024/01/01 15:53:58;;;;;;;4.50;2.23;;;9.50;93.80;;;;;;10450117;28;21354;-83
2024/01/01 15:59:01;;;;;;;10.70;3.03;;;9.50;93.60;;;;;;10471784;28;20209;-82
2024/01/01 16:04:04;;;;;;;5.70;2.57;;;9.50;94.00;;;;;;10469668;28;20275;-82
2024/01/01 16:09:07;;;;;;;7.13;2.90;;;9.40;93.70;;;;;;10461780;28;20621;-84
2024/01/01 16:14:09;;;;;;;4.10;2.80;;;9.40;93.80;;;;;;10455572;28;20328;-82
2024/01/01 16:19:13;;;;;;;8.23;3.43;;;9.40;94.00;;;;;;10447225;28;20212;-82
2024/01/01 16:24:15;;;;;;;10.17;3.70;;;9.40;94.10;;;;;;10452337;28;20190;-81
2024/01/01 16:29:18;;;;;;;2.90;2.27;;;9.30;94.50;;;;;;10455401;28;20193;-81
2024/01/01 16:34:21;;;;;;;5.33;2.83;;;9.30;94.50;;;;;;10454493;28;20263;-84
2024/01/01 16:39:24;;;;;;;6.03;2.70;;;9.20;94.60;;;;;;10440365;28;20738;-84
2024/01/01 16:44:28;;;;;;;3.67;2.60;;;9.30;94.70;;;;;;10459494;28;20205;-82
2024/01/01 16:49:32;;;;;;;7.97;2.70;;;9.30;94.70;;;;;;10440905;28;20789;-83
2024/01/01 16:54:34;;;;;;;3.47;2.50;;;9.30;94.60;;;;;;10430987;28;20206;-84
2024/01/01 16:59:37;;;;;;;2.60;2.40;;;9.30;94.50;;;;;;10460728;28;20228;-82
2024/01/01 17:04:42;;;;;;;5.40;2.40;;;9.20;94.60;;;;;;10458978;28;20197;-83
2024/01/01 17:09:44;;;;;;;6.40;2.50;;;9.20;94.50;;;;;;10426630;28;20217;-82
2024/01/01 17:14:47;;;;;;;5.33;2.67;;;9.10;94.40;;;;;;10442629;28;20201;-82
2024/01/01 17:19:52;;;;;;;9.30;2.67;;;9.10;94.60;;;;;;10432386;28;20236;-81
2024/01/01 17:25:04;;;;;;;7.40;2.60;;;9.10;94.70;;;;;;10597777;27;1258539;-84
2024/01/01 17:30:07;;;;;;;4.63;2.57;;;9.10;94.50;;;;;;10592971;28;20210;-83
2024/01/01 17:35:09;;;;;;;5.87;2.60;;;9.00;94.50;;;;;;10585208;28;20195;-84
2024/01/01 17:40:13;;;;;;;4.17;2.67;;;9.00;94.70;;;;;;10582643;28;20268;-83
2024/01/01 17:45:16;;;;;;;8.87;3.03;;;9.00;94.60;;;;;;10535389;28;20226;-82
2024/01/01 17:50:18;;;;;;;3.93;2.47;;;9.00;94.90;;;;;;10571212;28;20423;-84
2024/01/01 17:55:22;;;;;;;7.43;2.37;;;9.00;94.60;;;;;;10578671;28;20206;-82
2024/01/01 18:00:24;;;;;;;5.53;2.90;;;8.90;94.90;;;;;;10540707;28;20223;-85
2024/01/01 18:05:28;;;;;;;5.07;2.83;;;8.90;94.80;;;;;;10577924;28;20194;-85
2024/01/01 18:10:31;;;;;;;5.73;2.67;;;8.90;95.10;;;;;;10591087;28;20218;-84
2024/01/01 18:15:34;;;;;;;7.67;3.27;;;8.90;95.10;;;;;;10588944;28;20191;-84
2024/01/01 18:20:36;;;;;;;4.30;2.53;;;8.90;95.10;;;;;;10592365;28;20211;-81
2024/01/01 18:25:40;;;;;;;7.83;3.10;;;8.90;95.30;;;;;;10588118;28;20669;-85
2024/01/01 18:30:42;;;;;;;9.70;3.57;;;8.90;95.40;;;;;;10548550;28;20589;-86
2024/01/01 18:35:45;;;;;;;7.43;4.97;;;8.90;95.30;;;;;;10522956;28;20260;-85
2024/01/01 18:40:48;;;;;;;10.43;3.00;;;8.90;95.20;;;;;;10540537;28;20219;-86
2024/01/01 18:45:51;;;;;;;4.43;2.53;;;8.90;95.30;;;;;;10561338;28;20192;-81
2024/01/01 18:50:56;;;;;;;4.00;2.60;;;8.90;95.30;;;;;;10521227;28;20237;-84
2024/01/01 18:56:05;;;;;;;6.33;3.40;;;8.80;95.50;;;;;;10563442;28;20253;-86
2024/01/01 19:01:07;;;;;;;5.40;2.97;;;8.80;95.20;;;;;;10564949;28;20215;-83
2024/01/01 19:06:13;;;;;;;6.13;3.60;;;8.80;95.10;;;;;;10552864;28;20609;-83
2024/01/01 19:11:18;;;;;;;3.63;2.97;;;8.80;94.90;;;;;;10540563;28;20692;-85
2024/01/01 19:16:20;;;;;;;8.83;4.60;;;8.90;94.80;;;;;;10538210;28;20218;-85
2024/01/01 19:21:22;;;;;;;7.03;2.90;;;8.80;94.90;;;;;;10543722;28;20211;-85
2024/01/01 19:26:26;;;;;;;4.83;3.13;;;8.90;94.50;;;;;;10549331;28;20183;-83
2024/01/01 19:31:29;;;;;;;5.40;3.00;;;8.90;94.20;;;;;;10536989;28;20697;-83
2024/01/01 19:36:31;;;;;;;6.83;2.93;;;8.90;94.10;;;;;;10563949;28;20199;-83
2024/01/01 19:41:35;;;;;;;3.73;2.80;;;8.90;93.90;;;;;;10536612;28;20774;-82
2024/01/01 19:46:37;;;;;;;6.30;3.87;;;8.90;94.00;;;;;;10570719;28;20613;-85
2024/01/01 19:51:40;;;;;;;10.90;2.83;;;8.90;93.90;;;;;;10547681;28;20220;-84
2024/01/01 19:56:44;;;;;;;5.10;3.30;;;8.80;93.60;;;;;;10540241;28;20261;-83
2024/01/01 20:01:46;;;;;;;6.80;3.20;;;8.80;93.70;;;;;;10519663;28;20224;-83
2024/01/01 20:06:56;;;;;;;3.90;2.90;;;8.80;93.90;;;;;;10538920;28;20195;-85
2024/01/01 20:12:00;;;;;;;4.90;3.10;;;8.70;93.90;;;;;;10520270;28;20738;-83
2024/01/01 20:17:02;;;;;;;6.20;3.20;;;8.70;94.20;;;;;;10541822;28;20460;-83
2024/01/01 20:22:05;;;;;;;4.67;3.03;;;8.80;94.10;;;;;;10538323;28;20232;-83
2024/01/01 20:27:09;;;;;;;6.83;3.80;;;8.80;94.00;;;;;;10542549;28;20192;-84
2024/01/01 20:32:11;;;;;;;7.30;3.27;;;8.80;94.10;;;;;;10465317;22;20244;-77
2024/01/01 20:37:14;;;;;;;6.27;3.17;;;8.80;94.00;;;;;;10448637;28;20570;-77
2024/01/01 20:42:17;;;;;;;8.00;3.77;;;8.80;94.00;;;;;;10436264;28;20315;-77
2024/01/01 20:47:20;;;;;;;11.70;3.43;;;8.80;94.00;;;;;;10430156;28;20568;-77
2024/01/01 20:52:23;;;;;;;2.70;2.40;;;8.80;93.90;;;;;;10433783;28;20213;-77
2024/01/01 20:57:28;;;;;;;4.07;2.30;;;8.80;94.00;;;;;;10418139;28;20201;-77
2024/01/01 21:02:30;;;;;;;4.53;3.20;;;8.80;94.50;;;;;;10451157;28;20217;-77
2024/01/01 21:07:34;;;;;;;3.77;2.50;;;8.80;94.10;;;;;;10440425;28;20247;-77
2024/01/01 21:12:39;;;;;;;4.33;2.97;;;8.80;94.00;;;;;;10437417;28;20217;-77
2024/01/01 21:17:42;;;;;;;6.23;2.73;;;8.80;94.20;;;;;;10446790;28;20620;-77
2024/01/01 21:22:44;;;;;;;7.80;2.70;;;8.80;94.20;;;;;;10447129;28;20233;-77
2024/01/01 21:27:48;;;;;;;4.33;3.03;;;8.80;93.90;;;;;;10441928;28;20201;-77
2024/01/01 21:32:50;;;;;;;5.00;2.40;;;8.70;94.20;;;;;;10412005;28;20681;-77
2024/01/01 21:37:55;;;;;;;4.10;2.57;;;8.70;94.30;;;;;;10411836;28;20268;-78
2024/01/01 21:42:59;;;;;;;3.40;1.87;;;8.60;94.30;;;;;;10412117;28;20221;-77
2024/01/01 21:48:01;;;;;;;3.37;2.10;;;8.70;94.30;;;;;;10411554;28;20202;-77
2024/01/01 21:53:04;;;;;;;7.00;2.87;;;8.70;94.30;;;;;;10417759;28;20224;-77
2024/01/01 21:58:08;;;;;;;4.97;2.30;;;8.70;94.40;;;;;;10419026;28;20259;-77
2024/01/01 22:03:11;;;;;;;2.97;1.80;;;8.70;94.80;;;;;;10423950;28;20221;-77
2024/01/01 22:08:14;;;;;;;3.40;2.00;;;8.70;94.40;;;;;;10418172;28;20259;-77
2024/01/01 22:13:17;;;;;;;4.93;3.00;;;8.80;94.40;;;;;;10423088;28;20702;-77
2024/01/01 22:18:20;;;;;;;2.57;1.80;;;8.80;94.50;;;;;;10422607;28;20530;-77
2024/01/01 22:23:22;;;;;;;4.70;2.13;;;8.80;94.30;;;;;;10422675;28;20222;-78
2024/01/01 22:28:26;;;;;;;6.23;2.20;;;8.80;94.30;;;;;;10425099;28;20197;-77
2024/01/01 22:33:28;;;;;;;4.70;2.43;;;8.80;94.40;;;;;;10424210;28;20280;-77
2024/01/01 22:38:31;;;;;;;5.80;2.20;;;8.90;94.10;;;;;;10417135;28;20219;-77
2024/01/01 22:43:35;;;;;;;5.77;1.90;;;8.80;94.30;;;;;;10431211;28;20228;-77
2024/01/01 22:48:37;;;;;;;3.67;1.93;;;8.80;94.30;;;;;;10419000;28;20202;-77
2024/01/01 22:53:40;;;;;;;2.50;1.90;;;8.90;94.20;;;;;;10420522;28;20599;-77
2024/01/01 22:58:43;;;;;;;2.97;2.03;;;8.90;94.20;;;;;;10424570;28;20274;-77
2024/01/01 23:03:46;;;;;;;1.90;1.80;;;8.90;94.10;;;;;;10421978;28;20213;-77
2024/01/01 23:08:48;;;;;;;2.53;1.80;;;8.90;94.30;;;;;;10422178;28;20221;-77
2024/01/01 23:13:52;;;;;;;2.50;1.63;;;8.90;94.20;;;;;;10420190;28;20189;-77
2024/01/01 23:18:55;;;;;;;3.00;1.90;;;8.90;94.40;;;;;;10417839;28;20213;-78
2024/01/01 23:23:58;;;;;;;3.40;2.17;;;8.90;94.20;;;;;;10418619;28;20268;-77
2024/01/01 23:29:03;;;;;;;2.70;1.60;;;8.90;94.10;;;;;;10417352;28;20220;-76
2024/01/01 23:34:05;;;;;;;1.70;1.60;;;8.90;94.40;;;;;;10414778;28;20200;-77
2024/01/01 23:39:07;;;;;;;2.10;1.70;;;9.00;94.40;;;;;;10414287;28;20612;-78
2024/01/01 23:44:11;;;;;;;2.03;1.63;;;9.00;94.40;;;;;;10414100;28;20282;-79
2024/01/01 23:49:14;;;;;;;4.73;2.10;;;9.00;94.50;;;;;;10413387;28;20883;-77
2024/01/01 23:54:16;;;;;;;2.80;2.00;;;9.00;94.50;;;;;;10413985;28;20209;-77
2024/01/01 23:59:20;;;;;;;5.10;1.87;;;9.10;94.50;;;;;;10437220;28;20222;-77
